createdAt,value
2019-03-18T00:00:31.553Z,94461.28
2019-03-18T00:03:01.557Z,94452.86
2019-03-18T00:05:30.957Z,94456.39
2019-03-18T00:08:00.336Z,94458.96
2019-03-18T00:10:29.739Z,94454.83
2019-03-18T00:12:59.162Z,94451.55
2019-03-18T00:15:28.708Z,94452.07
2019-03-18T00:17:58.123Z,94453.25
2019-03-18T00:20:27.554Z,94463.16
2019-03-18T00:22:56.906Z,94457.23
2019-03-18T00:25:26.261Z,94459.69
2019-03-18T00:27:55.657Z,94459.95
2019-03-18T00:30:25.077Z,94466.05
2019-03-18T00:32:54.437Z,94460.86
2019-03-18T00:35:23.817Z,94462.98
2019-03-18T00:37:53.189Z,94460.92
2019-03-18T00:40:22.638Z,94456.67
2019-03-18T00:42:52.091Z,94459.03
2019-03-18T00:45:21.448Z,94461.10
2019-03-18T00:47:50.815Z,94458.83
2019-03-18T00:50:20.184Z,94460.92
2019-03-18T00:52:49.862Z,94461.10
2019-03-18T00:55:19.241Z,94453.84
2019-03-18T00:57:48.613Z,94454.52
2019-03-18T01:00:18.106Z,94454.20
2019-03-18T01:02:49.549Z,94446.38
2019-03-18T01:05:18.960Z,94439.75
2019-03-18T01:07:48.316Z,94447.42
2019-03-18T01:10:17.850Z,94446.73
2019-03-18T01:12:47.237Z,94443.28
2019-03-18T01:15:27.261Z,94439.86
2019-03-18T01:17:47.665Z,94437.41
2019-03-18T01:20:17.030Z,94434.08
2019-03-18T01:22:46.378Z,94435.96
2019-03-18T01:25:15.750Z,94430.20
2019-03-18T01:27:45.098Z,94426.59
2019-03-18T01:30:14.794Z,94417.14
2019-03-18T01:32:44.170Z,94419.95
2019-03-18T01:35:13.512Z,94418.58
2019-03-18T01:37:42.882Z,94422.11
2019-03-18T01:40:12.287Z,94424.31
2019-03-18T01:42:41.663Z,94432.02
2019-03-18T01:45:11.332Z,94432.99
2019-03-18T01:47:40.719Z,94429.06
2019-03-18T01:50:10.278Z,94421.39
2019-03-18T01:52:39.638Z,94421.58
2019-03-18T01:55:09.203Z,94432.45
2019-03-18T01:57:38.578Z,94430.16
2019-03-18T02:00:08.583Z,94430.19
2019-03-18T02:02:37.947Z,94430.88
2019-03-18T02:05:07.384Z,94437.06
2019-03-18T02:07:36.779Z,94437.39
2019-03-18T02:10:07.098Z,94434.17
2019-03-18T02:12:36.495Z,94429.66
2019-03-18T02:15:06.455Z,94427.59
2019-03-18T02:17:35.837Z,94435.92
2019-03-18T02:20:05.660Z,94431.59
2019-03-18T02:22:35.026Z,94435.36
2019-03-18T02:25:04.717Z,94437.19
2019-03-18T02:27:34.046Z,94440.45
2019-03-18T02:30:03.432Z,94446.61
2019-03-18T02:32:32.793Z,94450.31
2019-03-18T02:35:02.155Z,94449.38
2019-03-18T02:37:31.511Z,94459.08
2019-03-18T02:40:00.867Z,94450.17
2019-03-18T02:42:30.256Z,94454.42
2019-03-18T02:44:59.612Z,94457.14
2019-03-18T02:47:28.994Z,94456.50
2019-03-18T02:49:58.369Z,94452.81
2019-03-18T02:52:27.727Z,94458.92
2019-03-18T02:54:57.104Z,94454.55
2019-03-18T02:57:26.473Z,94452.77
2019-03-18T02:59:55.897Z,94458.11
2019-03-18T03:02:25.221Z,94458.59
2019-03-18T03:04:54.643Z,94454.72
2019-03-18T03:07:24.026Z,94462.33
2019-03-18T03:09:53.398Z,94463.44
2019-03-18T03:12:22.828Z,94453.91
2019-03-18T03:14:52.242Z,94456.00
2019-03-18T03:17:22.269Z,94457.80
2019-03-18T03:19:51.684Z,94458.12
2019-03-18T03:22:21.053Z,94459.23
2019-03-18T03:24:50.430Z,94450.02
2019-03-18T03:27:19.757Z,94450.34
2019-03-18T03:29:49.160Z,94453.25
2019-03-18T03:32:18.553Z,94455.36
2019-03-18T03:34:47.971Z,94454.88
2019-03-18T03:37:17.482Z,94455.50
2019-03-18T03:39:46.845Z,94470.38
2019-03-18T03:42:16.351Z,94469.25
2019-03-18T03:44:45.759Z,94467.80
2019-03-18T03:47:15.160Z,94480.53
2019-03-18T03:49:44.592Z,94468.55
2019-03-18T03:52:13.934Z,94473.22
2019-03-18T03:54:43.319Z,94476.98
2019-03-18T03:57:12.673Z,94475.39
2019-03-18T03:59:42.198Z,94475.48
2019-03-18T04:02:11.567Z,94482.91
2019-03-18T04:04:41.150Z,94475.52
2019-03-18T04:07:10.570Z,94482.94
2019-03-18T04:09:39.934Z,94481.31
2019-03-18T04:12:09.351Z,94480.99
2019-03-18T04:14:38.720Z,94484.23
2019-03-18T04:17:08.113Z,94481.99
2019-03-18T04:19:37.472Z,94484.61
2019-03-18T04:22:06.846Z,94478.77
2019-03-18T04:24:36.222Z,94482.66
2019-03-18T04:27:05.582Z,94483.13
2019-03-18T04:29:34.965Z,94486.70
2019-03-18T04:32:04.342Z,94492.00
2019-03-18T04:34:33.734Z,94492.00
2019-03-18T04:37:03.140Z,94492.64
2019-03-18T04:39:32.517Z,94496.46
2019-03-18T04:42:01.902Z,94492.45
2019-03-18T04:44:31.316Z,94501.97
2019-03-18T04:47:13.397Z,94500.50
2019-03-18T04:49:31.779Z,94502.92
2019-03-18T04:52:01.148Z,94501.62
2019-03-18T04:54:30.501Z,94501.34
2019-03-18T04:56:59.881Z,94500.52
2019-03-18T04:59:29.250Z,94498.93
2019-03-18T05:01:58.582Z,94497.63
2019-03-18T05:04:27.941Z,94501.80
2019-03-18T05:06:57.319Z,94510.69
2019-03-18T05:09:26.715Z,94520.00
2019-03-18T05:11:56.097Z,94522.58
2019-03-18T05:14:25.534Z,94529.98
2019-03-18T05:16:54.950Z,94520.92
2019-03-18T05:19:24.329Z,94518.50
2019-03-18T05:21:53.763Z,94521.26
2019-03-18T05:24:23.151Z,94529.91
2019-03-18T05:26:52.530Z,94526.38
2019-03-18T05:29:21.903Z,94516.02
2019-03-18T05:31:51.284Z,94523.26
2019-03-18T05:34:20.695Z,94531.86
2019-03-18T05:36:52.500Z,94533.01
2019-03-18T05:39:21.899Z,94530.67
2019-03-18T05:41:51.291Z,94534.91
2019-03-18T05:44:20.666Z,94536.87
2019-03-18T05:46:50.089Z,94538.52
2019-03-18T05:49:19.473Z,94531.26
2019-03-18T05:51:48.886Z,94531.10
2019-03-18T05:54:18.272Z,94530.81
2019-03-18T05:56:47.655Z,94527.28
2019-03-18T05:59:16.991Z,94526.52
2019-03-18T06:01:46.349Z,94529.45
2019-03-18T06:04:15.706Z,94518.93
2019-03-18T06:06:45.047Z,94525.10
2019-03-18T06:09:14.430Z,94521.55
2019-03-18T06:11:43.796Z,94518.33
2019-03-18T06:14:13.214Z,94515.91
2019-03-18T06:16:42.604Z,94522.70
2019-03-18T06:19:12.033Z,94521.73
2019-03-18T06:21:41.432Z,94529.20
2019-03-18T06:24:10.806Z,94522.27
2019-03-18T06:26:40.203Z,94521.28
2019-03-18T06:29:09.593Z,94525.66
2019-03-18T06:31:38.941Z,94513.50
2019-03-18T06:34:08.331Z,94522.84
2019-03-18T06:36:37.715Z,94527.06
2019-03-18T06:39:07.983Z,94522.81
2019-03-18T06:41:37.327Z,94520.33
2019-03-18T06:44:06.718Z,94527.07
2019-03-18T06:46:36.196Z,94525.73
2019-03-18T06:49:05.552Z,94520.64
2019-03-18T06:51:34.985Z,94526.72
2019-03-18T06:54:04.478Z,94515.73
2019-03-18T06:56:33.860Z,94518.76
2019-03-18T06:59:03.253Z,94517.23
2019-03-18T07:01:32.617Z,94520.39
2019-03-18T07:04:01.980Z,94518.52
2019-03-18T07:06:31.330Z,94522.82
2019-03-18T07:09:00.712Z,94521.11
2019-03-18T07:11:30.087Z,94521.39
2019-03-18T07:13:59.445Z,94516.73
2019-03-18T07:16:28.817Z,94520.99
2019-03-18T07:18:58.225Z,94520.94
2019-03-18T07:21:27.599Z,94517.23
2019-03-18T07:23:56.960Z,94516.84
2019-03-18T07:26:26.403Z,94516.39
2019-03-18T07:28:55.770Z,94511.80
2019-03-18T07:31:25.184Z,94517.85
2019-03-18T07:33:54.574Z,94513.11
2019-03-18T07:36:23.965Z,94512.13
2019-03-18T07:38:53.357Z,94506.63
2019-03-18T07:41:22.744Z,94510.29
2019-03-18T07:43:52.171Z,94502.18
2019-03-18T07:46:21.569Z,94505.73
2019-03-18T07:48:51.047Z,94503.73
2019-03-18T07:51:20.441Z,94499.52
2019-03-18T07:53:49.802Z,94502.54
2019-03-18T07:56:19.165Z,94488.94
2019-03-18T07:58:48.527Z,94484.80
2019-03-18T08:01:17.935Z,94486.66
2019-03-18T08:03:47.424Z,94484.34
2019-03-18T08:06:16.800Z,94482.87
2019-03-18T08:08:46.182Z,94481.66
2019-03-18T08:11:15.585Z,94479.05
2019-03-18T08:13:44.986Z,94473.17
2019-03-18T08:16:14.416Z,94472.04
2019-03-18T08:18:43.840Z,94468.28
2019-03-18T08:21:13.236Z,94471.33
2019-03-18T08:23:42.567Z,94462.92
2019-03-18T08:26:12.046Z,94467.36
2019-03-18T08:28:41.420Z,94464.17
2019-03-18T08:31:10.833Z,94472.12
2019-03-18T08:33:40.258Z,94469.84
2019-03-18T08:36:09.695Z,94464.14
2019-03-18T08:38:39.078Z,94463.93
2019-03-18T08:41:08.440Z,94470.19
2019-03-18T08:43:37.806Z,94458.53
2019-03-18T08:46:07.224Z,94454.91
2019-03-18T08:48:36.593Z,94452.83
2019-03-18T08:51:05.989Z,94448.09
2019-03-18T08:53:35.419Z,94455.14
2019-03-18T08:56:04.792Z,94445.89
2019-03-18T08:58:34.186Z,94444.64
2019-03-18T09:01:03.579Z,94435.88
2019-03-18T09:03:32.999Z,94435.86
2019-03-18T09:06:02.355Z,94445.10
2019-03-18T09:08:31.738Z,94435.91
2019-03-18T09:11:01.125Z,94422.30
2019-03-18T09:13:32.065Z,94434.75
2019-03-18T09:16:01.682Z,94435.33
2019-03-18T09:18:31.075Z,94425.27
2019-03-18T09:21:00.466Z,94422.29
2019-03-18T09:23:29.894Z,94421.89
2019-03-18T09:25:59.281Z,94421.47
2019-03-18T09:28:28.688Z,94416.94
2019-03-18T09:30:58.065Z,94413.92
2019-03-18T09:33:27.446Z,94413.94
2019-03-18T09:35:56.843Z,94408.73
2019-03-18T09:38:26.224Z,94408.73
2019-03-18T09:40:55.604Z,94413.39
2019-03-18T09:43:24.996Z,94407.56
2019-03-18T09:45:54.698Z,94405.44
2019-03-18T09:48:24.177Z,94414.70
2019-03-18T09:50:53.649Z,94400.77
2019-03-18T09:53:23.051Z,94398.98
2019-03-18T09:55:52.415Z,94403.17
2019-03-18T09:58:21.809Z,94398.19
2019-03-18T10:00:51.212Z,94393.85
2019-03-18T10:03:20.577Z,94390.23
2019-03-18T10:05:49.979Z,94386.59
2019-03-18T10:08:19.342Z,94386.80
2019-03-18T10:10:48.718Z,94379.72
2019-03-18T10:13:18.124Z,94372.00
2019-03-18T10:15:47.580Z,94375.78
2019-03-18T10:18:16.961Z,94369.28
2019-03-18T10:20:46.305Z,94365.78
2019-03-18T10:23:15.717Z,94362.09
2019-03-18T10:25:45.080Z,94359.59
2019-03-18T10:28:16.538Z,94357.49
2019-03-18T10:30:45.526Z,94356.05
2019-03-18T10:33:14.877Z,94355.02
2019-03-18T10:35:44.239Z,94353.96
2019-03-18T10:38:13.598Z,94356.86
2019-03-18T10:40:43.051Z,94353.45
2019-03-18T10:43:12.468Z,94344.91
2019-03-18T10:45:41.842Z,94344.53
2019-03-18T10:48:11.204Z,94342.22
2019-03-18T10:50:40.604Z,94339.77
2019-03-18T10:53:09.992Z,94331.99
2019-03-18T10:55:39.381Z,94328.02
2019-03-18T10:58:08.783Z,94321.56
2019-03-18T11:00:38.163Z,94321.16
2019-03-18T11:03:07.526Z,94312.66
2019-03-18T11:05:36.878Z,94312.16
2019-03-18T11:08:06.249Z,94313.23
2019-03-18T11:10:35.646Z,94304.09
2019-03-18T11:13:05.028Z,94298.69
2019-03-18T11:15:34.389Z,94298.42
2019-03-18T11:18:03.757Z,94285.52
2019-03-18T11:20:33.188Z,94277.78
2019-03-18T11:23:02.555Z,94279.85
2019-03-18T11:25:31.951Z,94277.77
2019-03-18T11:28:01.330Z,94271.73
2019-03-18T11:30:30.720Z,94275.36
2019-03-18T11:33:00.084Z,94271.91
2019-03-18T11:35:29.441Z,94268.98
2019-03-18T11:37:58.820Z,94255.93
2019-03-18T11:40:28.325Z,94259.72
2019-03-18T11:42:57.732Z,94250.94
2019-03-18T11:45:27.132Z,94251.97
2019-03-18T11:47:56.479Z,94243.89
2019-03-18T11:50:25.907Z,94244.49
2019-03-18T11:52:55.374Z,94239.41
2019-03-18T11:55:24.916Z,94237.46
2019-03-18T11:57:55.246Z,94233.78
2019-03-18T12:00:24.802Z,94229.16
2019-03-18T12:02:54.848Z,94223.16
2019-03-18T12:05:24.223Z,94228.20
2019-03-18T12:07:53.609Z,94216.52
2019-03-18T12:10:25.534Z,94214.64
2019-03-18T12:12:54.901Z,94208.06
2019-03-18T12:15:24.275Z,94204.89
2019-03-18T12:17:53.695Z,94197.86
2019-03-18T12:20:25.148Z,94193.55
2019-03-18T12:22:54.261Z,94192.81
2019-03-18T12:25:23.647Z,94186.75
2019-03-18T12:27:53.014Z,94193.67
2019-03-18T12:30:22.495Z,94190.48
2019-03-18T12:32:51.962Z,94190.00
2019-03-18T12:35:21.425Z,94176.90
2019-03-18T12:37:50.779Z,94178.45
2019-03-18T12:40:20.175Z,94171.78
2019-03-18T12:42:49.545Z,94170.87
2019-03-18T12:45:18.970Z,94170.33
2019-03-18T12:47:48.482Z,94167.16
2019-03-18T12:50:17.943Z,94158.97
2019-03-18T12:52:47.430Z,94155.94
2019-03-18T12:55:16.915Z,94153.34
2019-03-18T12:57:46.333Z,94150.02
2019-03-18T13:00:18.207Z,94146.00
2019-03-18T13:02:47.603Z,94137.70
2019-03-18T13:05:17.069Z,94140.77
2019-03-18T13:07:46.518Z,94140.73
2019-03-18T13:10:16.303Z,94139.49
2019-03-18T13:12:45.699Z,94135.98
2019-03-18T13:15:15.773Z,94131.95
2019-03-18T13:17:45.178Z,94127.03
2019-03-18T13:20:14.631Z,94125.77
2019-03-18T13:22:44.012Z,94122.25
2019-03-18T13:25:13.619Z,94116.87
2019-03-18T13:27:43.234Z,94123.11
2019-03-18T13:30:15.541Z,94119.78
2019-03-18T13:32:45.053Z,94118.85
2019-03-18T13:35:14.937Z,94111.75
2019-03-18T13:37:44.325Z,94108.97
2019-03-18T13:40:13.800Z,94111.98
2019-03-18T13:42:43.198Z,94107.27
2019-03-18T13:45:14.083Z,94109.98
2019-03-18T13:47:44.058Z,94106.27
2019-03-18T13:50:14.853Z,94101.81
2019-03-18T13:52:44.310Z,94110.43
2019-03-18T13:55:13.966Z,94111.73
2019-03-18T13:57:43.309Z,94106.50
2019-03-18T14:00:14.245Z,94104.00
2019-03-18T14:02:43.700Z,94100.55
2019-03-18T14:05:13.465Z,94078.94
2019-03-18T14:07:42.823Z,94087.42
2019-03-18T14:10:13.486Z,94084.25
2019-03-18T14:12:42.894Z,94077.50
2019-03-18T14:15:14.258Z,94078.72
2019-03-18T14:17:43.638Z,94068.58
2019-03-18T14:20:14.369Z,94071.91
2019-03-18T14:22:43.899Z,94083.79
2019-03-18T14:25:13.729Z,94071.12
2019-03-18T14:27:43.123Z,94066.80
2019-03-18T14:30:14.811Z,94064.52
2019-03-18T14:32:44.230Z,94060.96
2019-03-18T14:35:13.893Z,94070.71
2019-03-18T14:37:43.322Z,94061.48
2019-03-18T14:40:13.440Z,94068.47
2019-03-18T14:42:43.601Z,94063.47
2019-03-18T14:45:18.641Z,94060.30
2019-03-18T14:47:48.038Z,94066.37
2019-03-18T14:50:18.029Z,94068.64
2019-03-18T14:52:47.625Z,94063.97
2019-03-18T14:55:17.497Z,94068.86
2019-03-18T14:57:46.886Z,94064.80
2019-03-18T15:00:18.626Z,94066.22
2019-03-18T15:02:47.964Z,94068.66
2019-03-18T15:05:17.379Z,94063.28
2019-03-18T15:07:46.882Z,94063.83
2019-03-18T15:10:16.637Z,94064.13
2019-03-18T15:12:46.048Z,94057.37
2019-03-18T15:15:16.184Z,94065.13
2019-03-18T15:17:45.655Z,94067.62
2019-03-18T15:20:15.182Z,94072.23
2019-03-18T15:22:47.618Z,94068.64
2019-03-18T15:25:19.296Z,94075.41
2019-03-18T15:27:48.725Z,94074.40
2019-03-18T15:30:19.502Z,94082.91
2019-03-18T15:32:49.125Z,94086.58
2019-03-18T15:35:18.637Z,94076.63
2019-03-18T15:37:47.990Z,94074.72
2019-03-18T15:40:17.893Z,94074.48
2019-03-18T15:42:47.223Z,94074.84
2019-03-18T15:45:17.034Z,94073.31
2019-03-18T15:47:46.434Z,94079.59
2019-03-18T15:50:17.092Z,94083.02
2019-03-18T15:52:46.511Z,94082.33
2019-03-18T15:55:15.864Z,94092.00
2019-03-18T15:57:45.265Z,94088.69
2019-03-18T16:00:16.178Z,94092.83
2019-03-18T16:02:45.562Z,94084.70
2019-03-18T16:05:15.072Z,94096.33
2019-03-18T16:07:44.594Z,94100.48
2019-03-18T16:10:14.522Z,94102.52
2019-03-18T16:12:44.026Z,94097.43
2019-03-18T16:15:14.639Z,94101.13
2019-03-18T16:17:44.112Z,94101.47
2019-03-18T16:20:14.482Z,94103.34
2019-03-18T16:22:44.084Z,94107.05
2019-03-18T16:25:14.551Z,94109.98
2019-03-18T16:27:43.983Z,94118.45
2019-03-18T16:30:14.524Z,94116.06
2019-03-18T16:32:43.946Z,94116.48
2019-03-18T16:35:15.829Z,94127.07
2019-03-18T16:37:45.053Z,94120.27
2019-03-18T16:40:14.739Z,94129.47
2019-03-18T16:42:44.133Z,94133.44
2019-03-18T16:45:14.440Z,94134.95
2019-03-18T16:47:43.849Z,94138.05
2019-03-18T16:50:14.676Z,94142.18
2019-03-18T16:52:44.085Z,94142.38
2019-03-18T16:55:14.063Z,94145.66
2019-03-18T16:57:43.439Z,94147.98
2019-03-18T17:00:15.214Z,94146.66
2019-03-18T17:02:44.869Z,94148.19
2019-03-18T17:05:14.470Z,94147.63
2019-03-18T17:07:44.336Z,94155.34
2019-03-18T17:10:13.860Z,94156.35
2019-03-18T17:12:43.527Z,94162.41
2019-03-18T17:15:12.999Z,94167.00
2019-03-18T17:17:42.370Z,94168.48
2019-03-18T17:20:12.508Z,94171.40
2019-03-18T17:22:48.986Z,94165.39
2019-03-18T17:25:15.034Z,94168.98
2019-03-18T17:27:44.557Z,94171.63
2019-03-18T17:30:16.370Z,94179.04
2019-03-18T17:32:45.880Z,94178.00
2019-03-18T17:35:15.280Z,94173.03
2019-03-18T17:37:44.753Z,94180.95
2019-03-18T17:40:14.161Z,94188.96
2019-03-18T17:42:43.623Z,94187.16
2019-03-18T17:45:13.803Z,94181.16
2019-03-18T17:47:43.281Z,94187.36
2019-03-18T17:50:14.655Z,94188.31
2019-03-18T17:52:44.081Z,94192.80
2019-03-18T17:55:14.871Z,94196.24
2019-03-18T17:57:44.229Z,94197.67
2019-03-18T18:00:18.075Z,94200.02
2019-03-18T18:02:47.513Z,94203.73
2019-03-18T18:05:16.932Z,94210.26
2019-03-18T18:07:46.378Z,94220.02
2019-03-18T18:10:15.724Z,94213.88
2019-03-18T18:12:45.138Z,94221.96
2019-03-18T18:15:14.619Z,94223.03
2019-03-18T18:17:44.008Z,94225.67
2019-03-18T18:20:13.731Z,94227.52
2019-03-18T18:22:43.111Z,94229.91
2019-03-18T18:25:12.557Z,94227.72
2019-03-18T18:27:41.966Z,94233.60
2019-03-18T18:30:11.443Z,94232.30
2019-03-18T18:32:40.793Z,94239.77
2019-03-18T18:35:10.472Z,94244.27
2019-03-18T18:37:39.957Z,94243.09
2019-03-18T18:40:10.462Z,94237.00
2019-03-18T18:42:39.878Z,94238.50
2019-03-18T18:45:09.395Z,94238.80
2019-03-18T18:47:38.819Z,94247.82
2019-03-18T18:50:08.586Z,94250.53
2019-03-18T18:52:38.060Z,94252.02
2019-03-18T18:55:07.434Z,94248.61
2019-03-18T18:57:36.779Z,94254.02
2019-03-18T19:00:07.284Z,94251.80
2019-03-18T19:02:36.638Z,94253.28
2019-03-18T19:05:07.038Z,94262.36
2019-03-18T19:07:36.446Z,94264.66
2019-03-18T19:10:06.325Z,94265.67
2019-03-18T19:12:38.060Z,94271.13
2019-03-18T19:15:10.203Z,94273.49
2019-03-18T19:17:39.548Z,94276.26
2019-03-18T19:20:10.608Z,94273.13
2019-03-18T19:22:39.984Z,94265.36
2019-03-18T19:25:10.966Z,94283.39
2019-03-18T19:27:40.358Z,94287.17
2019-03-18T19:30:12.860Z,94284.20
2019-03-18T19:32:42.249Z,94277.34
2019-03-18T19:35:12.268Z,94290.98
2019-03-18T19:37:42.230Z,94290.98
2019-03-18T19:40:13.164Z,94294.63
2019-03-18T19:42:42.577Z,94301.09
2019-03-18T19:45:13.309Z,94301.09
2019-03-18T19:47:44.478Z,94307.95
2019-03-18T19:50:16.221Z,94309.14
2019-03-18T19:52:45.706Z,94309.14
2019-03-18T19:55:15.085Z,94308.42
2019-03-18T19:57:44.512Z,94308.42
2019-03-18T20:00:16.410Z,94311.38
2019-03-18T20:02:46.028Z,94314.99
2019-03-18T20:05:18.689Z,94321.16
2019-03-18T20:07:46.543Z,94324.09
2019-03-18T20:10:16.070Z,94325.97
2019-03-18T20:12:45.597Z,94325.92
2019-03-18T20:15:16.234Z,94335.39
2019-03-18T20:17:45.676Z,94337.48
2019-03-18T20:20:15.365Z,94334.98
2019-03-18T20:22:45.484Z,94336.67
2019-03-18T20:25:18.715Z,94329.14
2019-03-18T20:27:48.122Z,94329.14
2019-03-18T20:30:17.669Z,94331.92
2019-03-18T20:32:47.071Z,94340.58
2019-03-18T20:35:16.501Z,94338.59
2019-03-18T20:37:45.933Z,94339.11
2019-03-18T20:40:15.608Z,94338.56
2019-03-18T20:42:45.242Z,94336.38
2019-03-18T20:45:15.187Z,94345.77
2019-03-18T20:47:44.814Z,94350.19
2019-03-18T20:50:15.535Z,94355.81
2019-03-18T20:52:45.034Z,94357.25
2019-03-18T20:55:14.660Z,94364.47
2019-03-18T20:57:44.191Z,94367.21
2019-03-18T21:00:14.928Z,94365.72
2019-03-18T21:02:44.765Z,94377.77
2019-03-18T21:05:17.388Z,94378.17
2019-03-18T21:07:46.948Z,94378.81
2019-03-18T21:10:21.277Z,94378.90
2019-03-18T21:12:50.733Z,94379.08
2019-03-18T21:15:20.526Z,94380.11
2019-03-18T21:17:49.959Z,94386.45
2019-03-18T21:20:21.780Z,94388.06
2019-03-18T21:22:51.153Z,94392.33
2019-03-18T21:25:20.632Z,94384.59
2019-03-18T21:27:50.674Z,94378.77
2019-03-18T21:30:27.677Z,94376.65
2019-03-18T21:32:57.210Z,94375.25
2019-03-18T21:35:26.614Z,94378.66
2019-03-18T21:37:58.805Z,94373.92
2019-03-18T21:40:28.571Z,94373.78
2019-03-18T21:42:58.008Z,94377.27
2019-03-18T21:45:29.230Z,94375.53
2019-03-18T21:47:58.622Z,94371.34
2019-03-18T21:50:28.096Z,94381.49
2019-03-18T21:52:57.517Z,94379.38
2019-03-18T21:55:27.056Z,94385.80
2019-03-18T21:57:56.507Z,94387.11
2019-03-18T22:00:25.933Z,94388.30
2019-03-18T22:02:55.318Z,94379.59
2019-03-18T22:05:24.691Z,94381.17
2019-03-18T22:07:54.105Z,94385.48
2019-03-18T22:10:23.493Z,94381.98
2019-03-18T22:12:52.876Z,94381.17
2019-03-18T22:15:22.797Z,94388.14
2019-03-18T22:17:52.175Z,94390.65
2019-03-18T22:20:23.129Z,94391.45
2019-03-18T22:22:52.627Z,94392.84
2019-03-18T22:25:22.070Z,94395.77
2019-03-18T22:27:52.903Z,94395.98
2019-03-18T22:30:22.262Z,94399.50
2019-03-18T22:32:51.692Z,94399.28
2019-03-18T22:35:21.139Z,94395.96
2019-03-18T22:37:50.581Z,94393.45
2019-03-18T22:40:19.975Z,94397.27
2019-03-18T22:42:49.341Z,94397.55
2019-03-18T22:45:18.860Z,94399.47
2019-03-18T22:47:48.357Z,94404.59
2019-03-18T22:50:18.199Z,94416.05
2019-03-18T22:52:47.622Z,94425.19
2019-03-18T22:55:19.320Z,94427.08
2019-03-18T22:57:48.711Z,94422.61
2019-03-18T23:00:34.780Z,94429.87
2019-03-18T23:03:04.573Z,94430.46
2019-03-18T23:05:33.950Z,94432.65
2019-03-18T23:08:03.453Z,94437.05
2019-03-18T23:10:33.571Z,94439.84
2019-03-18T23:13:02.930Z,94440.39
2019-03-18T23:15:32.321Z,94443.35
2019-03-18T23:18:01.719Z,94440.48
2019-03-18T23:20:31.166Z,94443.10
2019-03-18T23:23:00.573Z,94444.81
2019-03-18T23:25:30.847Z,94450.50
2019-03-18T23:28:00.238Z,94454.42
2019-03-18T23:30:29.681Z,94454.41
2019-03-18T23:32:59.099Z,94450.39
2019-03-18T23:35:28.490Z,94454.80
2019-03-18T23:37:57.877Z,94451.19
2019-03-18T23:40:27.248Z,94454.42
2019-03-18T23:42:56.665Z,94455.88
2019-03-18T23:45:26.023Z,94461.41
2019-03-18T23:47:55.801Z,94468.23
2019-03-18T23:50:25.202Z,94469.34
2019-03-18T23:52:54.600Z,94465.73
2019-03-18T23:55:23.989Z,94472.63
2019-03-18T23:57:54.477Z,94474.66
